Time;durP1;ratioP1;P1;durP2;ratioP2;P2;SDS_P1;SDS_P2;PMS_P1;PMS_P2;Temp;Humidity;BMP_temperature;BMP_pressure;BME280_temperature;BME280_humidity;BME280_pressure;Samples;Min_cycle;Max_cycle;Signal;HPM_P1;HPM_P2
2021/06/13 00:00:53;;;;;;;7.32;4.05;;;15.70;98.20;;;;;;2047009;29;20042;-69
2021/06/13 00:01:54;;;;;;;7.95;5.00;;;15.70;97.40;;;;;;2063363;28;20022;-69
2021/06/13 00:02:54;;;;;;;9.75;4.53;;;15.60;97.90;;;;;;2070253;28;20033;-69
2021/06/13 00:03:55;;;;;;;6.43;3.72;;;15.60;98.20;;;;;;2055443;28;20431;-69
2021/06/13 00:04:56;;;;;;;6.35;4.22;;;15.60;97.90;;;;;;2055513;28;20526;-69
2021/06/13 00:05:56;;;;;;;5.90;3.78;;;15.60;97.90;;;;;;2054134;28;20406;-69
2021/06/13 00:06:57;;;;;;;6.80;4.07;;;15.60;97.80;;;;;;2053927;28;20030;-69
2021/06/13 00:07:57;;;;;;;7.03;4.00;;;15.60;97.70;;;;;;2056912;28;20034;-69
2021/06/13 00:08:58;;;;;;;7.97;4.05;;;15.50;97.70;;;;;;2057092;28;20027;-69
2021/06/13 00:09:58;;;;;;;13.98;4.63;;;15.50;98.20;;;;;;2056933;28;20382;-69
2021/06/13 00:11:00;;;;;;;7.82;4.05;;;15.50;98.20;;;;;;2057008;28;20493;-69
2021/06/13 00:12:00;;;;;;;13.80;4.45;;;15.50;97.30;;;;;;2056023;28;20031;-69
2021/06/13 00:13:01;;;;;;;7.60;4.55;;;15.50;98.20;;;;;;2055757;28;20041;-69
2021/06/13 00:14:03;;;;;;;5.85;3.92;;;15.50;98.00;;;;;;2056047;28;20023;-69
2021/06/13 00:15:06;;;;;;;7.95;4.43;;;15.40;98.20;;;;;;2056361;28;20019;-69
2021/06/13 00:16:07;;;;;;;8.95;4.03;;;15.40;98.60;;;;;;2056926;28;20136;-69
2021/06/13 00:17:08;;;;;;;6.15;3.80;;;15.40;98.80;;;;;;2056203;28;20049;-69
2021/06/13 00:18:09;;;;;;;7.95;4.65;;;15.40;98.60;;;;;;2078769;28;20019;-69
2021/06/13 00:19:09;;;;;;;7.18;4.50;;;15.40;98.70;;;;;;2078330;28;20034;-69
2021/06/13 00:20:13;;;;;;;8.02;4.35;;;15.40;99.00;;;;;;2056450;28;20019;-69
2021/06/13 00:21:14;;;;;;;6.85;3.75;;;15.40;98.70;;;;;;2056282;28;20027;-69
2021/06/13 00:22:15;;;;;;;5.60;3.72;;;15.40;98.80;;;;;;2056532;28;20098;-69
2021/06/13 00:23:16;;;;;;;8.82;3.90;;;15.40;98.50;;;;;;2056714;28;20486;-69
2021/06/13 00:24:16;;;;;;;8.40;4.10;;;15.30;98.30;;;;;;2052250;28;20059;-69
2021/06/13 00:25:18;;;;;;;5.70;3.97;;;15.30;99.10;;;;;;2048884;28;20442;-69
2021/06/13 00:26:19;;;;;;;7.57;4.07;;;15.30;99.30;;;;;;2054253;28;20042;-69
2021/06/13 00:27:19;;;;;;;7.10;3.70;;;15.30;99.10;;;;;;2056729;28;20088;-69
2021/06/13 00:28:20;;;;;;;9.75;4.10;;;15.30;99.10;;;;;;2056315;28;20077;-69
2021/06/13 00:29:21;;;;;;;7.07;4.60;;;15.30;99.50;;;;;;2055828;28;20478;-69
2021/06/13 00:30:22;;;;;;;9.57;4.68;;;15.30;99.60;;;;;;2055211;28;20048;-69
2021/06/13 00:31:23;;;;;;;6.63;4.32;;;15.30;99.70;;;;;;2048984;28;20027;-69
2021/06/13 00:32:23;;;;;;;9.85;4.63;;;15.20;99.90;;;;;;2053392;28;20019;-69
2021/06/13 00:33:24;;;;;;;7.60;4.07;;;15.20;99.90;;;;;;2056662;28;20535;-69
2021/06/13 00:34:25;;;;;;;9.48;4.97;;;15.20;99.40;;;;;;2057092;28;20034;-69
2021/06/13 00:35:26;;;;;;;8.30;4.25;;;15.20;99.60;;;;;;2055812;28;20377;-69
2021/06/13 00:36:26;;;;;;;8.40;4.45;;;15.20;99.60;;;;;;2056428;28;20410;-69
2021/06/13 00:37:27;;;;;;;6.90;3.83;;;15.20;99.80;;;;;;2049875;28;20058;-69
2021/06/13 00:38:28;;;;;;;8.38;4.47;;;15.20;99.80;;;;;;2049161;28;20136;-69
2021/06/13 00:39:28;;;;;;;10.30;4.50;;;15.20;99.90;;;;;;2048756;28;20035;-69
2021/06/13 00:40:29;;;;;;;7.38;4.97;;;15.10;99.90;;;;;;2050851;28;20032;-69
2021/06/13 00:41:29;;;;;;;14.00;5.40;;;15.10;99.90;;;;;;2056463;28;20030;-71
2021/06/13 00:42:30;;;;;;;6.47;4.07;;;15.10;99.90;;;;;;2054121;28;20030;-69
2021/06/13 00:43:30;;;;;;;8.23;4.00;;;15.10;99.60;;;;;;2056435;28;20398;-69
2021/06/13 00:44:31;;;;;;;7.63;4.40;;;15.10;99.40;;;;;;2057036;28;20046;-71
2021/06/13 00:45:32;;;;;;;8.98;4.60;;;15.10;99.60;;;;;;2056475;28;20031;-71
2021/06/13 00:46:32;;;;;;;11.90;5.32;;;15.00;99.90;;;;;;2054553;28;20046;-69
2021/06/13 00:47:33;;;;;;;7.60;4.20;;;15.00;99.90;;;;;;2048194;28;20034;-69
2021/06/13 00:48:33;;;;;;;9.32;4.30;;;15.00;99.50;;;;;;2048912;28;20076;-71
2021/06/13 00:49:34;;;;;;;11.48;4.53;;;15.00;99.30;;;;;;2048735;28;20372;-69
2021/06/13 00:50:38;;;;;;;10.85;4.60;;;15.00;99.80;;;;;;2055051;28;20027;-69
2021/06/13 00:51:39;;;;;;;8.32;5.05;;;15.00;99.90;;;;;;2055505;28;20120;-71
2021/06/13 00:52:40;;;;;;;9.15;4.75;;;15.00;99.90;;;;;;2056129;28;20022;-71
2021/06/13 00:53:40;;;;;;;10.40;4.40;;;15.00;99.90;;;;;;2052604;28;20034;-69
2021/06/13 00:54:41;;;;;;;6.35;4.40;;;15.00;99.90;;;;;;2054297;28;20103;-69
2021/06/13 00:55:42;;;;;;;6.68;3.85;;;15.00;99.90;;;;;;2070101;28;20025;-70
2021/06/13 00:56:43;;;;;;;7.78;4.38;;;15.00;99.90;;;;;;2068367;28;20098;-71
2021/06/13 00:57:43;;;;;;;5.15;4.50;;;15.00;99.70;;;;;;2056670;28;20374;-71
2021/06/13 00:58:44;;;;;;;8.88;4.55;;;14.90;99.90;;;;;;2048692;28;20028;-71
2021/06/13 00:59:45;;;;;;;6.53;4.85;;;14.90;99.90;;;;;;2048866;28;20027;-69
2021/06/13 01:00:45;;;;;;;6.05;4.15;;;14.90;99.90;;;;;;2048710;28;20019;-69
2021/06/13 01:01:46;;;;;;;5.35;4.40;;;14.90;99.90;;;;;;2052090;28;20023;-70
2021/06/13 01:02:46;;;;;;;5.45;3.95;;;14.90;99.90;;;;;;2056567;28;20116;-71
2021/06/13 01:03:48;;;;;;;6.18;3.97;;;14.90;99.90;;;;;;2056860;28;20114;-69
2021/06/13 01:04:49;;;;;;;5.75;4.32;;;14.80;99.80;;;;;;2055856;28;20505;-69
2021/06/13 01:05:50;;;;;;;7.82;4.85;;;14.80;99.70;;;;;;2055932;28;20047;-69
2021/06/13 01:07:13;;;;;;;8.75;4.47;;;14.80;99.90;;;;;;2055861;28;20509;-71
2021/06/13 01:08:45;;;;;;;5.93;4.00;;;14.80;99.90;;;;;;2053900;28;20084;-69
2021/06/13 01:10:05;;;;;;;6.78;4.68;;;14.80;99.90;;;;;;2056656;28;20038;-70
2021/06/13 01:11:17;;;;;;;7.80;4.03;;;14.70;99.90;;;;;;2052164;28;20034;-71
2021/06/13 01:12:26;;;;;;;6.40;4.32;;;14.70;99.90;;;;;;2061904;28;20031;-71
2021/06/13 01:13:38;;;;;;;8.25;4.38;;;14.70;99.90;;;;;;2066089;28;20032;-71
2021/06/13 01:15:01;;;;;;;6.55;4.43;;;14.70;99.90;;;;;;2050928;28;20513;-69
2021/06/13 01:16:09;;;;;;;9.48;4.57;;;14.60;99.90;;;;;;2052604;28;20050;-71
2021/06/13 01:17:21;;;;;;;9.27;4.95;;;14.60;99.90;;;;;;2056423;28;20354;-71
2021/06/13 01:18:35;;;;;;;7.60;4.75;;;14.60;99.90;;;;;;2056783;28;20029;-71
2021/06/13 01:19:49;;;;;;;8.55;4.45;;;14.60;99.90;;;;;;2056182;28;20030;-71
2021/06/13 01:20:59;;;;;;;7.32;3.83;;;14.60;99.90;;;;;;2053414;28;20110;-70
2021/06/13 01:22:19;;;;;;;9.70;4.75;;;14.60;99.90;;;;;;2048473;29;20153;-69
2021/06/13 01:23:57;;;;;;;7.53;4.82;;;14.50;99.90;;;;;;2048488;28;20107;-69
2021/06/13 01:25:09;;;;;;;9.85;4.38;;;14.60;99.90;;;;;;2052055;28;20101;-71
2021/06/13 01:26:17;;;;;;;7.00;4.53;;;14.50;99.90;;;;;;2056023;28;20031;-71
2021/06/13 01:27:30;;;;;;;11.38;4.82;;;14.50;99.90;;;;;;2056246;28;20039;-71
2021/06/13 01:28:52;;;;;;;7.45;4.43;;;14.50;99.90;;;;;;2056361;28;20382;-71
2021/06/13 01:29:55;;;;;;;7.22;5.10;;;14.40;99.90;;;;;;2062189;28;20023;-69
2021/06/13 01:30:58;;;;;;;6.60;4.43;;;14.40;99.90;;;;;;2059787;28;20038;-69
2021/06/13 01:32:05;;;;;;;7.25;4.75;;;14.40;99.90;;;;;;2086279;28;20123;-69
2021/06/13 01:33:11;;;;;;;7.60;4.65;;;14.40;99.90;;;;;;2056292;28;20041;-71
2021/06/13 01:34:17;;;;;;;7.57;4.28;;;14.40;99.90;;;;;;2056400;28;20110;-71
2021/06/13 01:35:22;;;;;;;7.13;4.18;;;14.40;99.90;;;;;;2053810;28;20113;-71
2021/06/13 01:36:24;;;;;;;18.05;5.65;;;14.40;99.90;;;;;;2048649;29;20072;-71
2021/06/13 01:37:29;;;;;;;9.30;4.95;;;14.40;99.90;;;;;;2057263;28;20423;-71
2021/06/13 01:38:32;;;;;;;8.93;5.50;;;14.40;99.90;;;;;;2081950;28;20112;-70
2021/06/13 01:39:34;;;;;;;10.30;5.18;;;14.40;99.90;;;;;;2056156;28;20019;-71
2021/06/13 01:40:36;;;;;;;10.93;4.85;;;14.40;99.90;;;;;;2056262;28;20470;-71
2021/06/13 01:41:38;;;;;;;8.90;5.78;;;14.30;99.90;;;;;;2055003;28;20052;-71
2021/06/13 01:42:43;;;;;;;6.90;4.40;;;14.30;99.90;;;;;;2051734;28;20059;-71
2021/06/13 01:43:45;;;;;;;8.30;5.28;;;14.30;99.90;;;;;;2055450;28;20019;-71
2021/06/13 01:44:50;;;;;;;6.97;4.70;;;14.30;99.90;;;;;;2055685;28;20106;-71
2021/06/13 01:45:54;;;;;;;6.88;4.28;;;14.30;99.90;;;;;;2055184;28;20698;-70
2021/06/13 01:46:56;;;;;;;7.88;4.90;;;14.30;99.90;;;;;;2052231;28;20035;-71
2021/06/13 01:47:57;;;;;;;9.52;5.68;;;14.30;99.90;;;;;;2048402;28;20039;-71
2021/06/13 01:48:59;;;;;;;9.45;5.47;;;14.20;99.90;;;;;;2048570;28;20102;-71
2021/06/13 01:50:00;;;;;;;7.25;4.38;;;14.20;99.90;;;;;;2047598;28;20034;-71
2021/06/13 01:51:01;;;;;;;8.60;4.82;;;14.20;99.90;;;;;;2053684;28;20054;-71
2021/06/13 01:52:03;;;;;;;7.60;5.15;;;14.20;99.90;;;;;;2055960;28;20419;-71
2021/06/13 01:53:08;;;;;;;8.20;5.05;;;14.30;99.90;;;;;;2055622;28;20062;-71
2021/06/13 01:54:10;;;;;;;9.10;5.50;;;14.20;99.90;;;;;;2059564;28;20030;-71
2021/06/13 01:55:11;;;;;;;9.77;5.25;;;14.20;99.90;;;;;;2057977;28;20391;-71
2021/06/13 01:56:14;;;;;;;10.25;4.85;;;14.20;99.90;;;;;;2056368;28;20054;-71
2021/06/13 01:57:15;;;;;;;8.63;4.40;;;14.20;99.90;;;;;;2057979;28;20025;-71
2021/06/13 01:58:19;;;;;;;8.80;5.40;;;14.20;99.90;;;;;;2059968;28;20614;-71
2021/06/13 01:59:21;;;;;;;9.15;5.20;;;14.20;99.90;;;;;;2055783;28;20073;-71
2021/06/13 02:00:22;;;;;;;8.38;4.93;;;14.10;99.90;;;;;;2054670;28;20015;-71
2021/06/13 02:01:26;;;;;;;7.63;5.22;;;14.10;99.90;;;;;;2052944;28;20028;-71
2021/06/13 02:02:27;;;;;;;8.60;4.90;;;14.10;99.90;;;;;;2055955;28;20114;-71
2021/06/13 02:03:28;;;;;;;7.45;4.88;;;14.10;99.90;;;;;;2056204;28;20030;-71
2021/06/13 02:04:31;;;;;;;7.90;4.60;;;14.10;99.90;;;;;;2056042;28;20061;-71
2021/06/13 02:05:33;;;;;;;11.18;4.57;;;14.00;99.90;;;;;;2056083;28;20023;-71
2021/06/13 02:06:38;;;;;;;9.45;5.82;;;14.00;99.90;;;;;;2053716;28;20077;-71
2021/06/13 02:07:40;;;;;;;10.75;5.05;;;14.00;99.90;;;;;;2055719;28;20463;-71
2021/06/13 02:08:44;;;;;;;8.82;5.53;;;14.00;99.90;;;;;;2055536;28;20022;-71
2021/06/13 02:09:47;;;;;;;8.65;4.85;;;14.00;99.90;;;;;;2056022;28;20487;-71
2021/06/13 02:10:49;;;;;;;7.53;4.63;;;14.00;99.90;;;;;;2054886;28;20022;-71
2021/06/13 02:11:51;;;;;;;7.10;4.90;;;14.00;99.90;;;;;;2051879;28;20344;-71
2021/06/13 02:12:53;;;;;;;6.60;4.32;;;14.00;99.90;;;;;;2055137;28;20043;-71
2021/06/13 02:13:55;;;;;;;10.77;5.10;;;14.00;99.90;;;;;;2055809;28;20467;-71
2021/06/13 02:14:57;;;;;;;10.32;5.85;;;14.00;99.90;;;;;;2060543;28;20034;-71
2021/06/13 02:15:59;;;;;;;9.23;5.50;;;13.90;99.90;;;;;;2060039;28;20101;-71
2021/06/13 02:17:00;;;;;;;9.18;5.63;;;14.00;99.90;;;;;;2056114;28;20344;-71
2021/06/13 02:18:02;;;;;;;9.00;4.63;;;13.90;99.90;;;;;;2056319;28;20467;-71
2021/06/13 02:19:03;;;;;;;6.90;4.47;;;13.90;99.90;;;;;;2056149;28;20101;-71
2021/06/13 02:20:06;;;;;;;9.98;5.40;;;13.90;99.90;;;;;;2055389;28;20054;-71
2021/06/13 02:21:08;;;;;;;7.28;4.95;;;13.90;99.90;;;;;;2053676;28;20503;-71
2021/06/13 02:22:13;;;;;;;10.85;5.20;;;13.90;99.90;;;;;;2072847;28;20097;-71
2021/06/13 02:23:15;;;;;;;8.00;4.70;;;13.90;99.90;;;;;;2056078;28;20022;-71
2021/06/13 02:24:17;;;;;;;9.40;4.65;;;13.90;99.90;;;;;;2056054;28;20023;-71
2021/06/13 02:25:20;;;;;;;8.65;5.22;;;13.80;99.90;;;;;;2055970;28;20370;-71
2021/06/13 02:26:20;;;;;;;10.70;5.28;;;13.80;99.90;;;;;;2056119;28;20069;-71
2021/06/13 02:27:25;;;;;;;8.90;4.75;;;13.80;99.90;;;;;;2052151;28;20031;-71
2021/06/13 02:28:27;;;;;;;9.88;5.15;;;13.80;99.90;;;;;;2048459;28;20023;-71
2021/06/13 02:29:29;;;;;;;7.85;4.82;;;13.80;99.90;;;;;;2048012;28;20039;-71
2021/06/13 02:30:34;;;;;;;9.27;5.40;;;13.80;99.90;;;;;;2075297;28;20073;-70
2021/06/13 02:31:40;;;;;;;6.47;4.63;;;13.80;99.90;;;;;;2055644;28;20027;-70
2021/06/13 02:32:42;;;;;;;8.82;4.50;;;13.70;99.90;;;;;;2055892;28;20515;-71
2021/06/13 02:33:45;;;;;;;7.70;5.43;;;13.70;99.90;;;;;;2055978;28;20026;-71
2021/06/13 02:34:47;;;;;;;10.52;5.00;;;13.70;99.90;;;;;;2056403;28;20030;-71
2021/06/13 02:35:51;;;;;;;9.20;5.65;;;13.70;99.90;;;;;;2056022;28;20476;-71
2021/06/13 02:36:55;;;;;;;11.65;5.13;;;13.70;99.90;;;;;;2053991;28;20097;-71
2021/06/13 02:37:58;;;;;;;9.27;4.90;;;13.70;99.90;;;;;;2047323;28;20391;-71
2021/06/13 02:38:58;;;;;;;6.82;4.70;;;13.60;99.90;;;;;;2047709;28;20028;-71
2021/06/13 02:39:59;;;;;;;9.18;5.18;;;13.70;99.90;;;;;;2048008;28;20034;-71
2021/06/13 02:41:00;;;;;;;11.10;5.38;;;13.60;99.90;;;;;;2048356;29;20023;-71
2021/06/13 02:42:00;;;;;;;7.60;5.35;;;13.60;99.90;;;;;;2052788;28;20104;-71
2021/06/13 02:43:01;;;;;;;6.18;4.57;;;13.60;99.90;;;;;;2056023;28;20035;-71
2021/06/13 02:44:02;;;;;;;11.57;4.75;;;13.60;99.90;;;;;;2054992;28;20030;-71
2021/06/13 02:45:12;;;;;;;6.57;4.68;;;13.60;99.90;;;;;;2052961;28;20035;-71
2021/06/13 02:46:12;;;;;;;8.55;5.57;;;13.60;99.90;;;;;;2047949;28;20031;-71
2021/06/13 02:47:13;;;;;;;9.02;5.05;;;13.60;99.90;;;;;;2054541;28;20027;-71
2021/06/13 02:48:16;;;;;;;9.70;4.70;;;13.60;99.90;;;;;;2055173;28;20026;-71
2021/06/13 02:49:17;;;;;;;8.25;5.13;;;13.50;99.90;;;;;;2056197;28;20023;-71
2021/06/13 02:50:22;;;;;;;8.30;4.80;;;13.50;99.90;;;;;;2055560;28;20035;-71
2021/06/13 02:51:31;;;;;;;6.28;4.47;;;13.50;99.90;;;;;;2054632;28;20030;-71
2021/06/13 02:53:07;;;;;;;7.68;4.18;;;13.50;99.90;;;;;;2048616;28;20364;-70
2021/06/13 02:54:11;;;;;;;9.90;5.50;;;13.50;99.90;;;;;;2055969;28;20085;-71
2021/06/13 02:55:24;;;;;;;9.40;5.55;;;13.40;99.90;;;;;;2056253;28;20019;-71
2021/06/13 02:56:42;;;;;;;9.98;5.18;;;13.40;99.90;;;;;;2052254;28;20023;-71
2021/06/13 02:57:49;;;;;;;7.28;4.85;;;13.40;99.90;;;;;;2057595;28;20374;-71
2021/06/13 02:58:57;;;;;;;6.95;5.35;;;13.30;99.90;;;;;;2057435;28;20496;-71
2021/06/13 03:00:02;;;;;;;10.07;5.00;;;13.40;99.90;;;;;;2057470;28;20054;-71
2021/06/13 03:01:04;;;;;;;9.70;4.95;;;13.30;99.90;;;;;;2057251;28;20027;-71
2021/06/13 03:02:09;;;;;;;9.32;5.55;;;13.30;99.90;;;;;;2057323;28;20030;-71
2021/06/13 03:03:11;;;;;;;6.97;4.88;;;13.30;99.90;;;;;;2061459;28;20031;-71
2021/06/13 03:04:15;;;;;;;9.27;5.20;;;13.30;99.90;;;;;;2064501;28;20026;-71
2021/06/13 03:05:18;;;;;;;8.25;5.25;;;13.30;99.90;;;;;;2056111;28;20113;-71
2021/06/13 03:06:21;;;;;;;8.63;5.07;;;13.30;99.90;;;;;;2056052;28;20027;-71
2021/06/13 03:07:21;;;;;;;10.10;5.20;;;13.20;99.90;;;;;;2055607;28;20042;-71
2021/06/13 03:08:22;;;;;;;9.48;4.97;;;13.20;99.90;;;;;;2048707;28;20034;-71
2021/06/13 03:09:26;;;;;;;10.75;5.68;;;13.20;99.90;;;;;;2048111;28;20477;-71
2021/06/13 03:10:27;;;;;;;9.65;5.70;;;13.20;99.90;;;;;;2056080;28;20091;-70
2021/06/13 03:11:29;;;;;;;8.82;5.05;;;13.20;99.90;;;;;;2050430;28;20131;-70
2021/06/13 03:12:30;;;;;;;9.70;5.47;;;13.20;99.90;;;;;;2055748;28;20624;-71
2021/06/13 03:13:31;;;;;;;7.35;5.45;;;13.20;99.90;;;;;;2055375;28;20418;-71
2021/06/13 03:14:33;;;;;;;9.95;5.97;;;13.20;99.90;;;;;;2052525;28;20039;-71
2021/06/13 03:15:34;;;;;;;7.25;4.82;;;13.20;99.90;;;;;;2070439;28;20081;-71
2021/06/13 03:16:37;;;;;;;8.15;5.15;;;13.20;99.90;;;;;;2056175;28;20064;-71
2021/06/13 03:17:40;;;;;;;7.50;4.63;;;13.20;99.90;;;;;;2055110;28;20034;-71
2021/06/13 03:18:43;;;;;;;11.00;6.15;;;13.10;99.90;;;;;;2055535;28;20509;-71
2021/06/13 03:19:46;;;;;;;10.80;5.13;;;13.10;99.90;;;;;;2055785;28;20080;-71
2021/06/13 03:20:48;;;;;;;8.25;5.53;;;13.10;99.90;;;;;;2054440;28;20019;-71
2021/06/13 03:21:50;;;;;;;7.05;4.95;;;13.10;99.90;;;;;;2089313;28;20029;-71
2021/06/13 03:22:51;;;;;;;8.70;5.43;;;13.10;99.90;;;;;;2062520;28;20057;-71
2021/06/13 03:23:52;;;;;;;8.98;4.82;;;13.10;99.90;;;;;;2055792;28;20478;-71
2021/06/13 03:24:54;;;;;;;9.43;5.10;;;13.10;99.90;;;;;;2055642;28;20526;-71
2021/06/13 03:25:55;;;;;;;9.15;5.57;;;13.10;99.90;;;;;;2050736;28;20063;-71
2021/06/13 03:26:56;;;;;;;8.18;4.85;;;13.10;99.90;;;;;;2081923;28;20481;-71
2021/06/13 03:27:59;;;;;;;6.75;5.07;;;13.10;99.90;;;;;;2055725;28;20035;-71
2021/06/13 03:29:01;;;;;;;5.93;4.45;;;13.10;99.90;;;;;;2054802;28;20143;-71
2021/06/13 03:30:03;;;;;;;7.70;5.00;;;13.10;99.90;;;;;;2063784;28;20097;-71
2021/06/13 03:31:05;;;;;;;8.50;5.50;;;13.00;99.90;;;;;;2055206;28;20030;-71
2021/06/13 03:32:08;;;;;;;7.20;5.75;;;13.00;99.90;;;;;;2053277;28;20130;-71
2021/06/13 03:33:09;;;;;;;7.13;4.60;;;13.00;99.90;;;;;;2047791;28;20039;-71
2021/06/13 03:34:10;;;;;;;7.90;5.22;;;13.00;99.90;;;;;;2047838;28;20115;-71
2021/06/13 03:35:11;;;;;;;7.25;5.32;;;13.00;99.90;;;;;;2050926;28;20038;-71
2021/06/13 03:36:13;;;;;;;10.82;5.68;;;13.00;99.90;;;;;;2055510;28;20047;-71
2021/06/13 03:37:15;;;;;;;7.38;5.25;;;13.00;99.90;;;;;;2056378;28;20023;-71
2021/06/13 03:38:17;;;;;;;6.97;5.05;;;13.00;99.90;;;;;;2062027;28;20532;-71
2021/06/13 03:39:19;;;;;;;8.48;5.75;;;13.00;99.90;;;;;;2057783;28;20033;-71
2021/06/13 03:40:20;;;;;;;7.75;5.82;;;13.00;99.90;;;;;;2060094;28;20065;-71
2021/06/13 03:41:22;;;;;;;10.68;5.05;;;13.00;99.90;;;;;;2055475;28;20029;-71
2021/06/13 03:42:23;;;;;;;6.65;4.68;;;13.00;99.90;;;;;;2054224;28;20019;-71
2021/06/13 03:43:25;;;;;;;7.38;4.68;;;13.00;99.90;;;;;;2053339;28;20390;-71
2021/06/13 03:44:26;;;;;;;8.85;4.93;;;12.90;99.90;;;;;;2055507;28;20113;-71
2021/06/13 03:45:27;;;;;;;7.20;5.47;;;12.90;99.90;;;;;;2049376;28;20027;-71
2021/06/13 03:46:28;;;;;;;8.10;5.55;;;12.90;99.90;;;;;;2047976;28;20266;-71
2021/06/13 03:47:32;;;;;;;7.85;5.35;;;12.90;99.90;;;;;;2055920;28;20031;-71
2021/06/13 03:48:33;;;;;;;7.18;4.55;;;12.90;99.90;;;;;;2055423;28;20061;-71
2021/06/13 03:49:35;;;;;;;7.60;4.93;;;12.90;99.90;;;;;;2055998;28;20023;-71
2021/06/13 03:50:36;;;;;;;10.15;5.40;;;12.90;99.90;;;;;;2055220;28;20034;-71
2021/06/13 03:51:36;;;;;;;14.32;5.53;;;12.90;99.90;;;;;;2052048;28;20514;-71
2021/06/13 03:52:39;;;;;;;8.18;4.63;;;12.90;99.90;;;;;;2051935;28;20061;-71
2021/06/13 03:53:54;;;;;;;7.82;4.95;;;12.90;99.90;;;;;;2055264;28;20096;-71
2021/06/13 03:54:56;;;;;;;9.48;5.68;;;12.90;99.90;;;;;;2055322;28;20569;-71
2021/06/13 03:56:02;;;;;;;12.38;5.40;;;12.90;99.90;;;;;;2055975;28;20030;-71
2021/06/13 03:57:05;;;;;;;7.15;4.68;;;12.90;99.90;;;;;;2055652;28;20471;-71
2021/06/13 03:58:08;;;;;;;6.13;4.70;;;12.90;99.90;;;;;;2051732;28;20568;-71
2021/06/13 03:59:10;;;;;;;8.55;4.68;;;12.90;99.90;;;;;;2046902;29;20015;-71
2021/06/13 04:00:12;;;;;;;6.63;4.75;;;13.00;99.90;;;;;;2054644;28;20445;-71
2021/06/13 04:01:15;;;;;;;7.75;4.75;;;13.00;99.90;;;;;;2055527;28;20023;-71
2021/06/13 04:02:17;;;;;;;7.68;4.82;;;13.00;99.90;;;;;;2055270;28;20029;-71
2021/06/13 04:03:20;;;;;;;7.47;4.95;;;13.10;99.90;;;;;;2055602;28;20088;-71
2021/06/13 04:04:22;;;;;;;11.57;5.82;;;13.10;99.90;;;;;;2055652;28;20050;-71
2021/06/13 04:05:23;;;;;;;8.77;5.35;;;13.10;99.90;;;;;;2055234;28;20026;-71
2021/06/13 04:06:25;;;;;;;7.50;5.05;;;13.20;99.90;;;;;;2055146;28;20068;-71
2021/06/13 04:07:26;;;;;;;7.90;5.03;;;13.30;99.90;;;;;;2055688;28;20101;-71
2021/06/13 04:08:26;;;;;;;9.18;5.05;;;13.30;99.90;;;;;;2055748;28;20471;-71
2021/06/13 04:09:27;;;;;;;8.77;5.57;;;13.40;99.90;;;;;;2055418;28;20023;-71
2021/06/13 04:10:30;;;;;;;6.57;4.53;;;13.50;99.90;;;;;;2055480;28;20369;-71
2021/06/13 04:11:31;;;;;;;8.07;4.68;;;13.50;99.90;;;;;;2054587;28;20023;-71
2021/06/13 04:12:33;;;;;;;7.22;4.72;;;13.70;99.90;;;;;;2054145;28;20019;-71
2021/06/13 04:13:34;;;;;;;6.72;4.45;;;14.00;99.90;;;;;;2059519;28;20030;-71
2021/06/13 04:14:35;;;;;;;8.13;5.65;;;14.30;99.90;;;;;;2066974;28;20023;-71
2021/06/13 04:15:36;;;;;;;7.63;4.97;;;14.60;99.90;;;;;;2055266;28;20031;-71
2021/06/13 04:16:37;;;;;;;9.30;5.00;;;14.90;99.90;;;;;;2055747;28;20111;-71
2021/06/13 04:17:39;;;;;;;9.00;4.70;;;15.30;99.90;;;;;;2055238;28;20041;-71
2021/06/13 04:18:42;;;;;;;6.85;4.88;;;15.50;99.90;;;;;;2055568;28;20062;-71
2021/06/13 04:19:45;;;;;;;7.50;4.53;;;15.80;99.80;;;;;;2055145;28;20514;-71
2021/06/13 04:20:47;;;;;;;10.18;4.68;;;16.00;99.30;;;;;;2053670;28;20027;-71
2021/06/13 04:21:48;;;;;;;10.73;4.30;;;16.30;98.60;;;;;;2088695;28;20009;-71
2021/06/13 04:22:49;;;;;;;6.97;4.80;;;16.50;97.90;;;;;;2062641;28;20026;-71
2021/06/13 04:23:51;;;;;;;6.03;4.85;;;16.70;96.70;;;;;;2055135;28;20050;-71
2021/06/13 04:24:54;;;;;;;10.48;5.72;;;16.90;96.30;;;;;;2055578;28;20030;-71
2021/06/13 04:25:56;;;;;;;6.63;4.47;;;17.10;95.90;;;;;;2055162;28;20057;-71
2021/06/13 04:26:59;;;;;;;9.10;4.47;;;17.10;94.90;;;;;;2055451;28;20058;-71
2021/06/13 04:28:00;;;;;;;6.47;4.53;;;17.20;95.00;;;;;;2055251;28;20019;-71
2021/06/13 04:29:01;;;;;;;7.85;4.90;;;17.20;95.90;;;;;;2051486;28;20059;-71
2021/06/13 04:30:05;;;;;;;6.85;4.22;;;17.10;96.40;;;;;;2047384;29;20032;-71
2021/06/13 04:31:12;;;;;;;5.28;4.32;;;17.00;96.30;;;;;;2047567;28;20027;-71
2021/06/13 04:32:13;;;;;;;6.63;4.47;;;17.00;97.00;;;;;;2053755;28;20027;-71
2021/06/13 04:33:14;;;;;;;13.15;4.70;;;17.00;97.70;;;;;;2054918;28;20083;-71
2021/06/13 04:34:14;;;;;;;8.68;4.63;;;17.00;98.00;;;;;;2054543;28;20023;-71
2021/06/13 04:35:15;;;;;;;17.58;4.78;;;17.00;98.40;;;;;;2063186;28;20054;-71
2021/06/13 04:36:17;;;;;;;7.32;4.00;;;17.00;98.60;;;;;;2055476;28;20023;-71
2021/06/13 04:37:18;;;;;;;7.50;5.00;;;17.00;99.20;;;;;;2050132;28;20058;-71
2021/06/13 04:38:18;;;;;;;7.40;4.57;;;17.00;99.10;;;;;;2047180;28;20028;-71
2021/06/13 04:39:19;;;;;;;7.40;4.55;;;17.00;99.10;;;;;;2047408;28;20031;-71
2021/06/13 04:40:20;;;;;;;12.82;4.63;;;17.00;99.20;;;;;;2047496;28;20027;-71
2021/06/13 04:41:21;;;;;;;6.93;4.07;;;17.10;99.10;;;;;;2047547;28;20068;-71
2021/06/13 04:42:22;;;;;;;9.18;4.10;;;17.10;99.00;;;;;;2049803;28;20034;-71
2021/06/13 04:43:23;;;;;;;8.82;4.25;;;17.20;99.40;;;;;;2054200;28;20046;-71
2021/06/13 04:44:23;;;;;;;7.90;4.25;;;17.30;99.50;;;;;;2055379;28;20405;-71
2021/06/13 04:45:24;;;;;;;9.77;4.05;;;17.40;99.20;;;;;;2055260;28;20023;-71
2021/06/13 04:46:27;;;;;;;6.03;3.85;;;17.40;98.40;;;;;;2055521;28;20459;-71
2021/06/13 04:47:27;;;;;;;7.13;3.97;;;17.50;98.60;;;;;;2054873;28;20332;-71
2021/06/13 04:48:28;;;;;;;7.70;4.00;;;17.60;98.90;;;;;;2055234;28;20053;-71
2021/06/13 04:49:28;;;;;;;6.97;3.33;;;17.60;98.50;;;;;;2055210;28;20027;-72
2021/06/13 04:50:29;;;;;;;8.10;3.95;;;17.70;98.70;;;;;;2049225;28;20043;-70
2021/06/13 04:51:34;;;;;;;7.00;4.15;;;17.80;98.20;;;;;;2046919;28;20062;-71
2021/06/13 04:52:37;;;;;;;8.63;4.05;;;17.90;98.20;;;;;;2089149;28;20378;-71
2021/06/13 04:53:50;;;;;;;8.70;4.35;;;18.00;97.00;;;;;;2065166;28;20072;-71
2021/06/13 04:54:57;;;;;;;7.15;3.97;;;18.10;96.40;;;;;;2054912;28;20019;-71
2021/06/13 04:56:05;;;;;;;11.65;4.93;;;18.20;96.10;;;;;;2054683;28;20044;-71
2021/06/13 04:57:24;;;;;;;9.88;4.05;;;18.20;95.20;;;;;;2053505;28;20023;-71
2021/06/13 04:58:25;;;;;;;7.25;4.03;;;18.30;92.00;;;;;;2052229;28;20072;-69
2021/06/13 04:59:26;;;;;;;8.05;3.88;;;18.40;94.70;;;;;;2055010;28;20493;-71
2021/06/13 05:00:26;;;;;;;9.13;4.03;;;18.50;94.80;;;;;;2055619;28;20555;-71
2021/06/13 05:01:27;;;;;;;12.48;4.20;;;18.50;94.60;;;;;;2054826;28;20026;-71
2021/06/13 05:02:28;;;;;;;6.82;3.90;;;18.60;94.30;;;;;;2054930;28;20122;-71
2021/06/13 05:03:28;;;;;;;8.15;3.97;;;18.70;93.10;;;;;;2054783;28;20034;-71
2021/06/13 05:04:29;;;;;;;8.23;3.75;;;18.80;91.30;;;;;;2055343;28;20072;-71
2021/06/13 05:05:30;;;;;;;6.45;3.70;;;18.80;91.40;;;;;;2055187;28;20057;-69
2021/06/13 05:06:30;;;;;;;8.52;4.28;;;18.90;92.40;;;;;;2055102;28;20026;-69
2021/06/13 05:07:32;;;;;;;8.57;3.85;;;19.00;92.20;;;;;;2054703;28;20054;-70
2021/06/13 05:08:33;;;;;;;6.82;3.45;;;19.00;91.80;;;;;;2047681;29;20019;-70
2021/06/13 05:09:33;;;;;;;9.00;4.13;;;19.10;91.40;;;;;;2046967;28;20085;-70
2021/06/13 05:10:35;;;;;;;7.72;3.95;;;19.20;91.10;;;;;;2047451;28;20027;-69
2021/06/13 05:11:36;;;;;;;6.65;3.38;;;19.30;91.30;;;;;;2048470;28;20073;-70
2021/06/13 05:12:48;;;;;;;7.47;3.85;;;19.30;90.10;;;;;;2054784;28;20394;-70
2021/06/13 05:13:48;;;;;;;8.48;4.50;;;19.40;87.50;;;;;;2054767;28;20027;-70
2021/06/13 05:14:49;;;;;;;8.85;4.30;;;19.50;89.80;;;;;;2049456;28;20094;-70
2021/06/13 05:15:50;;;;;;;7.65;3.90;;;19.50;87.80;;;;;;2054612;28;20115;-70
2021/06/13 05:16:51;;;;;;;7.72;3.95;;;19.60;87.00;;;;;;2055360;28;20525;-70
2021/06/13 05:17:52;;;;;;;6.43;3.80;;;19.60;86.30;;;;;;2054876;28;20518;-70
2021/06/13 05:18:52;;;;;;;8.05;4.00;;;19.70;85.20;;;;;;2054090;28;20027;-70
2021/06/13 05:19:53;;;;;;;7.03;4.07;;;19.70;85.70;;;;;;2049889;28;20045;-71
2021/06/13 05:20:54;;;;;;;5.80;3.50;;;19.80;84.10;;;;;;2054768;28;20031;-70
2021/06/13 05:21:54;;;;;;;8.85;4.18;;;19.80;83.70;;;;;;2054367;28;20019;-70
2021/06/13 05:23:03;;;;;;;7.65;3.83;;;19.90;83.70;;;;;;2047487;28;20027;-70
2021/06/13 05:24:04;;;;;;;14.85;4.45;;;20.00;80.40;;;;;;2046600;28;20133;-71
2021/06/13 05:25:05;;;;;;;9.75;4.75;;;20.00;81.80;;;;;;2050312;28;20030;-71
2021/06/13 05:26:07;;;;;;;8.32;3.83;;;20.10;82.90;;;;;;2054811;28;20035;-71
2021/06/13 05:27:07;;;;;;;7.20;3.47;;;20.20;81.50;;;;;;2048553;28;20104;-71
2021/06/13 05:28:08;;;;;;;8.50;3.88;;;20.20;80.70;;;;;;2055337;28;20480;-72